EGMC/SEN METAR and TAF weather

Enter ICAO airport designator
Station Type Date Time Source
EGMC METAR 2018/01/19 17:20 UTC NOAA

EGMC 191720Z 24007KT CAVOK 04/M01 Q1008


Station Type Date Time Source
EGMC Decoded METAR 2018/01/19 17:20 UTC NOAA

Southend-On-Sea , United Kingdom (EGMC) 51-34N 000-42E
Jan 19, 2018 - 12:20 PM EST / 2018.01.19 1720 UTC
Wind: from the WSW (240 degrees) at 8 MPH (7 KT):0
Visibility: greater than 7 mile(s):0
Temperature: 39 F (4 C)
Dew Point: 30 F (-1 C)
Relative Humidity: 69%
Pressure (altimeter): 29.77 in. Hg (1008 hPa)
ob: EGMC 191720Z 24007KT CAVOK 04/M01 Q1008
cycle: 17

Station Type Date Time Source
EGMC TAF 2016/04/18 18:00 UTC NOAA

TAF EGMC 181658Z 1818/1903 28008KT 9999 BKN045


Example: see airport list